KBBD/BBD METAR and TAF weather

Enter ICAO airport designator
Station Type Date Time Source
KBBD METAR 2018/12/12 16:55 UTC NOAA

KBBD 121655Z AUTO 21013KT 8SM CLR 13/10 A2999 RMK AO2


Station Type Date Time Source
KBBD Decoded METAR 2018/12/12 16:55 UTC NOAA

Brady, Curtis Field Airport, TX, United States (KBBD) 31-10-45N 099-19-26W
Dec 12, 2018 - 11:55 AM EST / 2018.12.12 1655 UTC
Wind: from the SSW (210 degrees) at 15 MPH (13 KT):0
Visibility: 8 mile(s):0
Sky conditions: clear
Temperature: 55 F (13 C)
Dew Point: 50 F (10 C)
Relative Humidity: 81%
Pressure (altimeter): 29.99 in. Hg (1015 hPa)
ob: KBBD 121655Z AUTO 21013KT 8SM CLR 13/10 A2999 RMK AO2
cycle: 17

Station Type Date Time Source
KBBD TAF 2018/12/12 12:36 UTC NOAA

TAF KBBD 121135Z 1212/1312 20009KT P6SM OVC200
FM130000 19007KT P6SM OVC100


Example: see airport list